sensor_id;sensor_type;location;lat;lon;timestamp;P1;durP1;ratioP1;P2;durP2;ratioP2
65684;SDS011;52405;50.844;-1.062;2023-03-13T00:00:44;35.33;;;7.55;;
65684;SDS011;52405;50.844;-1.062;2023-03-13T00:03:14;28.35;;;5.68;;
65684;SDS011;52405;50.844;-1.062;2023-03-13T00:05:39;39.10;;;9.45;;
65684;SDS011;52405;50.844;-1.062;2023-03-13T00:08:04;38.53;;;8.10;;
65684;SDS011;52405;50.844;-1.062;2023-03-13T00:10:30;33.33;;;7.18;;
65684;SDS011;52405;50.844;-1.062;2023-03-13T00:12:57;39.17;;;7.15;;
65684;SDS011;52405;50.844;-1.062;2023-03-13T00:15:25;34.75;;;7.82;;
65684;SDS011;52405;50.844;-1.062;2023-03-13T00:17:51;30.80;;;7.43;;
65684;SDS011;52405;50.844;-1.062;2023-03-13T00:20:16;33.05;;;7.03;;
65684;SDS011;52405;50.844;-1.062;2023-03-13T00:22:41;39.33;;;8.32;;
65684;SDS011;52405;50.844;-1.062;2023-03-13T00:25:07;25.75;;;6.55;;
65684;SDS011;52405;50.844;-1.062;2023-03-13T00:27:33;33.05;;;9.02;;
65684;SDS011;52405;50.844;-1.062;2023-03-13T00:29:58;30.13;;;6.68;;
65684;SDS011;52405;50.844;-1.062;2023-03-13T00:32:27;30.98;;;7.40;;
65684;SDS011;52405;50.844;-1.062;2023-03-13T00:34:52;28.00;;;6.35;;
65684;SDS011;52405;50.844;-1.062;2023-03-13T00:37:21;38.85;;;7.50;;
65684;SDS011;52405;50.844;-1.062;2023-03-13T00:39:46;40.83;;;7.15;;
65684;SDS011;52405;50.844;-1.062;2023-03-13T00:42:14;28.80;;;6.75;;
65684;SDS011;52405;50.844;-1.062;2023-03-13T00:44:42;30.38;;;6.47;;
65684;SDS011;52405;50.844;-1.062;2023-03-13T00:47:07;33.00;;;6.50;;
65684;SDS011;52405;50.844;-1.062;2023-03-13T00:49:35;28.50;;;6.20;;
65684;SDS011;52405;50.844;-1.062;2023-03-13T00:52:04;21.13;;;5.18;;
65684;SDS011;52405;50.844;-1.062;2023-03-13T00:54:29;26.83;;;7.30;;
65684;SDS011;52405;50.844;-1.062;2023-03-13T00:56:57;29.45;;;5.78;;
65684;SDS011;52405;50.844;-1.062;2023-03-13T00:59:22;29.80;;;5.80;;
65684;SDS011;52405;50.844;-1.062;2023-03-13T01:01:48;19.20;;;5.75;;
65684;SDS011;52405;50.844;-1.062;2023-03-13T01:04:13;28.42;;;7.25;;
65684;SDS011;52405;50.844;-1.062;2023-03-13T01:06:39;28.48;;;6.32;;
65684;SDS011;52405;50.844;-1.062;2023-03-13T01:09:11;16.00;;;4.18;;
65684;SDS011;52405;50.844;-1.062;2023-03-13T01:11:39;35.35;;;6.40;;
65684;SDS011;52405;50.844;-1.062;2023-03-13T01:14:10;29.40;;;5.53;;
65684;SDS011;52405;50.844;-1.062;2023-03-13T01:16:38;25.77;;;5.40;;
65684;SDS011;52405;50.844;-1.062;2023-03-13T01:19:05;27.85;;;6.28;;
65684;SDS011;52405;50.844;-1.062;2023-03-13T01:21:36;24.05;;;5.68;;
65684;SDS011;52405;50.844;-1.062;2023-03-13T01:24:02;30.73;;;6.40;;
65684;SDS011;52405;50.844;-1.062;2023-03-13T01:26:28;34.85;;;6.45;;
65684;SDS011;52405;50.844;-1.062;2023-03-13T01:28:54;28.27;;;8.30;;
65684;SDS011;52405;50.844;-1.062;2023-03-13T01:31:30;26.52;;;5.82;;
65684;SDS011;52405;50.844;-1.062;2023-03-13T01:34:00;41.63;;;7.25;;
65684;SDS011;52405;50.844;-1.062;2023-03-13T01:36:28;28.85;;;6.72;;
65684;SDS011;52405;50.844;-1.062;2023-03-13T01:38:57;36.58;;;7.50;;
65684;SDS011;52405;50.844;-1.062;2023-03-13T01:41:23;24.75;;;7.30;;
65684;SDS011;52405;50.844;-1.062;2023-03-13T01:43:52;26.80;;;5.72;;
65684;SDS011;52405;50.844;-1.062;2023-03-13T01:46:21;29.63;;;7.97;;
65684;SDS011;52405;50.844;-1.062;2023-03-13T01:51:25;25.58;;;5.13;;
65684;SDS011;52405;50.844;-1.062;2023-03-13T01:54:14;26.45;;;4.28;;
65684;SDS011;52405;50.844;-1.062;2023-03-13T01:59:16;31.00;;;7.80;;
65684;SDS011;52405;50.844;-1.062;2023-03-13T02:01:45;25.60;;;5.18;;
65684;SDS011;52405;50.844;-1.062;2023-03-13T02:04:15;16.60;;;5.35;;
65684;SDS011;52405;50.844;-1.062;2023-03-13T02:06:44;24.52;;;5.63;;
65684;SDS011;52405;50.844;-1.062;2023-03-13T02:09:20;21.10;;;5.15;;
65684;SDS011;52405;50.844;-1.062;2023-03-13T02:12:25;27.30;;;4.85;;
65684;SDS011;52405;50.844;-1.062;2023-03-13T02:14:48;25.05;;;5.53;;
65684;SDS011;52405;50.844;-1.062;2023-03-13T02:17:14;26.08;;;6.32;;
65684;SDS011;52405;50.844;-1.062;2023-03-13T02:25:19;29.00;;;7.00;;
65684;SDS011;52405;50.844;-1.062;2023-03-13T02:27:41;27.15;;;5.40;;
65684;SDS011;52405;50.844;-1.062;2023-03-13T02:30:09;24.63;;;5.82;;
65684;SDS011;52405;50.844;-1.062;2023-03-13T02:32:40;14.70;;;4.07;;
65684;SDS011;52405;50.844;-1.062;2023-03-13T02:35:10;21.10;;;4.68;;
65684;SDS011;52405;50.844;-1.062;2023-03-13T02:37:38;28.95;;;5.95;;
65684;SDS011;52405;50.844;-1.062;2023-03-13T02:40:11;12.25;;;3.30;;
65684;SDS011;52405;50.844;-1.062;2023-03-13T02:42:40;13.35;;;3.25;;
65684;SDS011;52405;50.844;-1.062;2023-03-13T02:45:07;20.80;;;3.85;;
65684;SDS011;52405;50.844;-1.062;2023-03-13T02:47:33;16.98;;;5.18;;
65684;SDS011;52405;50.844;-1.062;2023-03-13T02:49:59;19.05;;;4.00;;
65684;SDS011;52405;50.844;-1.062;2023-03-13T02:52:27;10.95;;;3.75;;
65684;SDS011;52405;50.844;-1.062;2023-03-13T02:55:02;18.60;;;3.72;;
65684;SDS011;52405;50.844;-1.062;2023-03-13T02:57:34;12.90;;;3.10;;
65684;SDS011;52405;50.844;-1.062;2023-03-13T03:00:02;11.45;;;2.40;;
65684;SDS011;52405;50.844;-1.062;2023-03-13T03:02:30;17.10;;;3.28;;
65684;SDS011;52405;50.844;-1.062;2023-03-13T03:04:56;13.25;;;3.13;;
65684;SDS011;52405;50.844;-1.062;2023-03-13T03:07:21;20.48;;;3.58;;
65684;SDS011;52405;50.844;-1.062;2023-03-13T03:09:47;11.27;;;3.20;;
65684;SDS011;52405;50.844;-1.062;2023-03-13T03:12:12;19.25;;;3.95;;
65684;SDS011;52405;50.844;-1.062;2023-03-13T03:14:40;19.65;;;3.50;;
65684;SDS011;52405;50.844;-1.062;2023-03-13T03:17:05;26.90;;;3.88;;
65684;SDS011;52405;50.844;-1.062;2023-03-13T03:19:33;15.98;;;4.43;;
65684;SDS011;52405;50.844;-1.062;2023-03-13T03:21:58;20.83;;;4.30;;
65684;SDS011;52405;50.844;-1.062;2023-03-13T03:24:24;22.60;;;4.45;;
65684;SDS011;52405;50.844;-1.062;2023-03-13T03:26:49;29.75;;;5.28;;
65684;SDS011;52405;50.844;-1.062;2023-03-13T03:29:15;22.10;;;4.97;;
65684;SDS011;52405;50.844;-1.062;2023-03-13T03:31:40;19.25;;;4.45;;
65684;SDS011;52405;50.844;-1.062;2023-03-13T03:34:08;25.35;;;5.28;;
65684;SDS011;52405;50.844;-1.062;2023-03-13T03:36:33;18.77;;;4.60;;
65684;SDS011;52405;50.844;-1.062;2023-03-13T03:38:59;18.25;;;4.53;;
65684;SDS011;52405;50.844;-1.062;2023-03-13T03:41:24;16.48;;;3.20;;
65684;SDS011;52405;50.844;-1.062;2023-03-13T03:43:50;12.38;;;2.47;;
65684;SDS011;52405;50.844;-1.062;2023-03-13T03:46:15;14.23;;;2.20;;
65684;SDS011;52405;50.844;-1.062;2023-03-13T03:48:41;16.60;;;2.85;;
65684;SDS011;52405;50.844;-1.062;2023-03-13T03:51:06;20.45;;;4.65;;
65684;SDS011;52405;50.844;-1.062;2023-03-13T03:53:32;25.45;;;4.78;;
65684;SDS011;52405;50.844;-1.062;2023-03-13T03:55:58;17.23;;;4.93;;
65684;SDS011;52405;50.844;-1.062;2023-03-13T03:58:26;27.30;;;5.95;;
65684;SDS011;52405;50.844;-1.062;2023-03-13T04:00:55;28.80;;;6.47;;
65684;SDS011;52405;50.844;-1.062;2023-03-13T04:03:21;28.33;;;5.47;;
65684;SDS011;52405;50.844;-1.062;2023-03-13T04:05:47;26.42;;;5.28;;
65684;SDS011;52405;50.844;-1.062;2023-03-13T04:08:13;26.48;;;5.30;;
65684;SDS011;52405;50.844;-1.062;2023-03-13T04:10:38;27.55;;;6.35;;
65684;SDS011;52405;50.844;-1.062;2023-03-13T04:13:04;17.73;;;4.72;;
65684;SDS011;52405;50.844;-1.062;2023-03-13T04:15:32;22.50;;;4.78;;
65684;SDS011;52405;50.844;-1.062;2023-03-13T04:17:59;24.08;;;4.40;;
65684;SDS011;52405;50.844;-1.062;2023-03-13T04:20:29;23.42;;;5.53;;
65684;SDS011;52405;50.844;-1.062;2023-03-13T04:22:55;14.73;;;4.40;;
65684;SDS011;52405;50.844;-1.062;2023-03-13T04:25:20;20.67;;;4.88;;
65684;SDS011;52405;50.844;-1.062;2023-03-13T04:27:48;24.45;;;5.15;;
65684;SDS011;52405;50.844;-1.062;2023-03-13T04:30:18;22.02;;;5.65;;
65684;SDS011;52405;50.844;-1.062;2023-03-13T04:32:44;26.60;;;5.82;;
65684;SDS011;52405;50.844;-1.062;2023-03-13T04:35:09;26.50;;;5.20;;
65684;SDS011;52405;50.844;-1.062;2023-03-13T04:37:37;37.03;;;7.80;;
65684;SDS011;52405;50.844;-1.062;2023-03-13T04:40:02;34.05;;;6.80;;
65684;SDS011;52405;50.844;-1.062;2023-03-13T04:42:29;37.65;;;7.43;;
65684;SDS011;52405;50.844;-1.062;2023-03-13T04:44:54;27.63;;;6.57;;
65684;SDS011;52405;50.844;-1.062;2023-03-13T04:47:19;35.60;;;6.78;;
65684;SDS011;52405;50.844;-1.062;2023-03-13T04:49:45;34.30;;;5.35;;
65684;SDS011;52405;50.844;-1.062;2023-03-13T04:52:10;30.02;;;6.07;;
65684;SDS011;52405;50.844;-1.062;2023-03-13T04:54:38;42.40;;;8.20;;
65684;SDS011;52405;50.844;-1.062;2023-03-13T04:57:06;30.08;;;7.18;;
65684;SDS011;52405;50.844;-1.062;2023-03-13T04:59:31;29.98;;;6.30;;
65684;SDS011;52405;50.844;-1.062;2023-03-13T05:01:57;24.67;;;5.43;;
65684;SDS011;52405;50.844;-1.062;2023-03-13T05:04:22;30.40;;;7.43;;
65684;SDS011;52405;50.844;-1.062;2023-03-13T05:06:50;22.33;;;6.53;;
65684;SDS011;52405;50.844;-1.062;2023-03-13T05:09:15;25.60;;;5.43;;
65684;SDS011;52405;50.844;-1.062;2023-03-13T05:11:43;33.55;;;5.63;;
65684;SDS011;52405;50.844;-1.062;2023-03-13T05:14:08;19.67;;;4.95;;
65684;SDS011;52405;50.844;-1.062;2023-03-13T05:16:35;11.10;;;3.33;;
65684;SDS011;52405;50.844;-1.062;2023-03-13T05:19:02;27.70;;;5.43;;
65684;SDS011;52405;50.844;-1.062;2023-03-13T05:21:27;23.00;;;5.40;;
65684;SDS011;52405;50.844;-1.062;2023-03-13T05:23:53;18.55;;;4.97;;
65684;SDS011;52405;50.844;-1.062;2023-03-13T05:26:18;29.52;;;5.97;;
65684;SDS011;52405;50.844;-1.062;2023-03-13T05:28:43;35.60;;;9.23;;
65684;SDS011;52405;50.844;-1.062;2023-03-13T05:31:09;31.75;;;6.95;;
65684;SDS011;52405;50.844;-1.062;2023-03-13T05:33:34;43.63;;;9.07;;
65684;SDS011;52405;50.844;-1.062;2023-03-13T05:35:59;37.17;;;7.55;;
65684;SDS011;52405;50.844;-1.062;2023-03-13T05:38:25;31.33;;;7.28;;
65684;SDS011;52405;50.844;-1.062;2023-03-13T05:40:52;30.42;;;7.45;;
65684;SDS011;52405;50.844;-1.062;2023-03-13T05:43:23;40.83;;;7.57;;
65684;SDS011;52405;50.844;-1.062;2023-03-13T05:45:48;49.25;;;9.43;;
65684;SDS011;52405;50.844;-1.062;2023-03-13T05:48:16;38.28;;;10.10;;
65684;SDS011;52405;50.844;-1.062;2023-03-13T05:50:42;38.30;;;8.90;;
65684;SDS011;52405;50.844;-1.062;2023-03-13T05:53:11;47.67;;;8.65;;
65684;SDS011;52405;50.844;-1.062;2023-03-13T05:55:36;46.90;;;9.52;;
65684;SDS011;52405;50.844;-1.062;2023-03-13T05:58:01;43.63;;;9.07;;
65684;SDS011;52405;50.844;-1.062;2023-03-13T06:00:27;39.40;;;7.15;;
65684;SDS011;52405;50.844;-1.062;2023-03-13T06:02:53;56.38;;;12.02;;
65684;SDS011;52405;50.844;-1.062;2023-03-13T06:05:18;37.03;;;10.07;;
65684;SDS011;52405;50.844;-1.062;2023-03-13T06:07:44;50.05;;;10.35;;
65684;SDS011;52405;50.844;-1.062;2023-03-13T06:10:09;45.25;;;9.90;;
65684;SDS011;52405;50.844;-1.062;2023-03-13T06:12:38;49.70;;;10.55;;
65684;SDS011;52405;50.844;-1.062;2023-03-13T06:15:08;50.45;;;10.25;;
65684;SDS011;52405;50.844;-1.062;2023-03-13T06:17:36;48.03;;;9.23;;
65684;SDS011;52405;50.844;-1.062;2023-03-13T06:20:04;56.30;;;10.45;;
65684;SDS011;52405;50.844;-1.062;2023-03-13T06:22:30;36.30;;;9.27;;
65684;SDS011;52405;50.844;-1.062;2023-03-13T06:24:55;41.05;;;8.20;;
65684;SDS011;52405;50.844;-1.062;2023-03-13T06:27:23;43.40;;;8.60;;
65684;SDS011;52405;50.844;-1.062;2023-03-13T06:29:51;40.45;;;8.70;;
65684;SDS011;52405;50.844;-1.062;2023-03-13T06:32:16;55.30;;;8.90;;
65684;SDS011;52405;50.844;-1.062;2023-03-13T06:34:41;53.80;;;9.13;;
65684;SDS011;52405;50.844;-1.062;2023-03-13T06:37:09;50.67;;;9.07;;
65684;SDS011;52405;50.844;-1.062;2023-03-13T06:39:38;43.85;;;9.27;;
65684;SDS011;52405;50.844;-1.062;2023-03-13T06:42:03;51.50;;;11.68;;
65684;SDS011;52405;50.844;-1.062;2023-03-13T06:44:32;58.38;;;9.95;;
65684;SDS011;52405;50.844;-1.062;2023-03-13T06:46:57;39.90;;;10.25;;
65684;SDS011;52405;50.844;-1.062;2023-03-13T06:49:25;45.50;;;10.95;;
65684;SDS011;52405;50.844;-1.062;2023-03-13T06:51:55;47.75;;;10.02;;
65684;SDS011;52405;50.844;-1.062;2023-03-13T06:54:24;52.35;;;10.85;;
65684;SDS011;52405;50.844;-1.062;2023-03-13T06:56:54;46.25;;;10.55;;
65684;SDS011;52405;50.844;-1.062;2023-03-13T06:59:20;45.38;;;9.98;;
65684;SDS011;52405;50.844;-1.062;2023-03-13T07:01:48;46.15;;;11.43;;
65684;SDS011;52405;50.844;-1.062;2023-03-13T07:04:13;41.90;;;7.82;;
65684;SDS011;52405;50.844;-1.062;2023-03-13T07:06:40;41.67;;;9.80;;
65684;SDS011;52405;50.844;-1.062;2023-03-13T07:09:05;50.17;;;9.60;;
65684;SDS011;52405;50.844;-1.062;2023-03-13T07:11:31;36.80;;;10.38;;
65684;SDS011;52405;50.844;-1.062;2023-03-13T07:13:56;41.95;;;11.15;;
65684;SDS011;52405;50.844;-1.062;2023-03-13T07:16:25;38.85;;;8.75;;
65684;SDS011;52405;50.844;-1.062;2023-03-13T07:18:51;46.35;;;11.40;;
65684;SDS011;52405;50.844;-1.062;2023-03-13T07:21:18;46.28;;;10.38;;
65684;SDS011;52405;50.844;-1.062;2023-03-13T07:23:44;48.50;;;9.00;;
65684;SDS011;52405;50.844;-1.062;2023-03-13T07:26:10;49.92;;;9.82;;
65684;SDS011;52405;50.844;-1.062;2023-03-13T07:28:38;59.05;;;10.93;;
65684;SDS011;52405;50.844;-1.062;2023-03-13T07:33:39;53.40;;;12.32;;
65684;SDS011;52405;50.844;-1.062;2023-03-13T07:36:05;51.40;;;11.15;;
65684;SDS011;52405;50.844;-1.062;2023-03-13T07:38:33;47.90;;;10.15;;
65684;SDS011;52405;50.844;-1.062;2023-03-13T07:41:04;48.75;;;9.77;;
65684;SDS011;52405;50.844;-1.062;2023-03-13T07:43:29;50.63;;;9.10;;
65684;SDS011;52405;50.844;-1.062;2023-03-13T07:48:28;52.55;;;10.63;;
65684;SDS011;52405;50.844;-1.062;2023-03-13T07:50:55;56.85;;;11.98;;
65684;SDS011;52405;50.844;-1.062;2023-03-13T07:53:22;59.63;;;11.40;;
65684;SDS011;52405;50.844;-1.062;2023-03-13T07:55:53;54.90;;;10.18;;
65684;SDS011;52405;50.844;-1.062;2023-03-13T07:58:20;41.40;;;9.15;;
65684;SDS011;52405;50.844;-1.062;2023-03-13T08:00:47;53.20;;;11.05;;
65684;SDS011;52405;50.844;-1.062;2023-03-13T08:03:12;49.75;;;12.05;;
65684;SDS011;52405;50.844;-1.062;2023-03-13T08:05:38;53.80;;;9.82;;
65684;SDS011;52405;50.844;-1.062;2023-03-13T08:08:03;50.83;;;11.45;;
65684;SDS011;52405;50.844;-1.062;2023-03-13T08:10:29;45.83;;;9.65;;
65684;SDS011;52405;50.844;-1.062;2023-03-13T08:12:55;50.65;;;9.90;;
65684;SDS011;52405;50.844;-1.062;2023-03-13T08:15:23;50.35;;;10.90;;
65684;SDS011;52405;50.844;-1.062;2023-03-13T08:17:54;52.75;;;10.95;;
65684;SDS011;52405;50.844;-1.062;2023-03-13T08:20:20;59.22;;;11.80;;
65684;SDS011;52405;50.844;-1.062;2023-03-13T08:22:48;41.58;;;10.65;;
65684;SDS011;52405;50.844;-1.062;2023-03-13T08:25:16;48.38;;;12.23;;
65684;SDS011;52405;50.844;-1.062;2023-03-13T08:27:42;48.60;;;12.48;;
65684;SDS011;52405;50.844;-1.062;2023-03-13T08:30:07;44.85;;;11.00;;
65684;SDS011;52405;50.844;-1.062;2023-03-13T08:32:34;49.08;;;12.10;;
65684;SDS011;52405;50.844;-1.062;2023-03-13T08:35:00;43.15;;;11.77;;
65684;SDS011;52405;50.844;-1.062;2023-03-13T08:37:28;44.28;;;10.18;;
65684;SDS011;52405;50.844;-1.062;2023-03-13T08:39:53;47.88;;;10.82;;
65684;SDS011;52405;50.844;-1.062;2023-03-13T08:42:21;49.00;;;10.65;;
65684;SDS011;52405;50.844;-1.062;2023-03-13T08:44:48;44.78;;;8.73;;
65684;SDS011;52405;50.844;-1.062;2023-03-13T08:47:13;55.40;;;11.32;;
65684;SDS011;52405;50.844;-1.062;2023-03-13T08:49:39;43.60;;;11.07;;
65684;SDS011;52405;50.844;-1.062;2023-03-13T08:52:05;47.10;;;11.15;;
65684;SDS011;52405;50.844;-1.062;2023-03-13T08:54:35;48.40;;;10.52;;
65684;SDS011;52405;50.844;-1.062;2023-03-13T08:57:00;40.28;;;10.45;;
65684;SDS011;52405;50.844;-1.062;2023-03-13T08:59:26;42.83;;;10.40;;
65684;SDS011;52405;50.844;-1.062;2023-03-13T09:01:51;36.70;;;8.50;;
65684;SDS011;52405;50.844;-1.062;2023-03-13T09:04:17;42.50;;;10.43;;
65684;SDS011;52405;50.844;-1.062;2023-03-13T09:06:43;49.22;;;11.80;;
65684;SDS011;52405;50.844;-1.062;2023-03-13T09:09:09;42.25;;;10.43;;
65684;SDS011;52405;50.844;-1.062;2023-03-13T09:11:36;41.05;;;9.55;;
65684;SDS011;52405;50.844;-1.062;2023-03-13T09:14:03;44.40;;;9.60;;
65684;SDS011;52405;50.844;-1.062;2023-03-13T09:16:30;45.38;;;10.52;;
65684;SDS011;52405;50.844;-1.062;2023-03-13T09:18:57;41.45;;;10.82;;
65684;SDS011;52405;50.844;-1.062;2023-03-13T09:21:26;42.45;;;9.68;;
65684;SDS011;52405;50.844;-1.062;2023-03-13T09:23:54;45.67;;;12.25;;
65684;SDS011;52405;50.844;-1.062;2023-03-13T09:26:20;53.75;;;10.50;;
65684;SDS011;52405;50.844;-1.062;2023-03-13T09:28:46;49.05;;;10.73;;
65684;SDS011;52405;50.844;-1.062;2023-03-13T09:31:14;42.50;;;9.43;;
65684;SDS011;52405;50.844;-1.062;2023-03-13T09:33:44;51.22;;;10.65;;
65684;SDS011;52405;50.844;-1.062;2023-03-13T09:36:16;42.45;;;11.23;;
65684;SDS011;52405;50.844;-1.062;2023-03-13T09:38:42;41.92;;;10.77;;
65684;SDS011;52405;50.844;-1.062;2023-03-13T09:51:53;49.85;;;9.80;;
65684;SDS011;52405;50.844;-1.062;2023-03-13T09:54:25;41.10;;;9.57;;
65684;SDS011;52405;50.844;-1.062;2023-03-13T09:56:56;41.75;;;9.90;;
65684;SDS011;52405;50.844;-1.062;2023-03-13T09:59:29;43.05;;;10.23;;
65684;SDS011;52405;50.844;-1.062;2023-03-13T10:02:00;45.28;;;11.52;;
65684;SDS011;52405;50.844;-1.062;2023-03-13T10:04:38;43.28;;;10.55;;
65684;SDS011;52405;50.844;-1.062;2023-03-13T10:07:10;42.88;;;9.60;;
65684;SDS011;52405;50.844;-1.062;2023-03-13T10:09:36;40.40;;;10.13;;
65684;SDS011;52405;50.844;-1.062;2023-03-13T10:14:40;38.58;;;9.93;;
65684;SDS011;52405;50.844;-1.062;2023-03-13T10:17:14;46.72;;;11.48;;
65684;SDS011;52405;50.844;-1.062;2023-03-13T10:19:55;39.85;;;9.45;;
65684;SDS011;52405;50.844;-1.062;2023-03-13T10:22:26;53.88;;;10.02;;
65684;SDS011;52405;50.844;-1.062;2023-03-13T10:24:59;40.75;;;9.45;;
65684;SDS011;52405;50.844;-1.062;2023-03-13T10:27:26;51.28;;;9.15;;
65684;SDS011;52405;50.844;-1.062;2023-03-13T10:29:57;38.75;;;8.35;;
65684;SDS011;52405;50.844;-1.062;2023-03-13T10:32:22;35.72;;;9.07;;
65684;SDS011;52405;50.844;-1.062;2023-03-13T10:34:52;43.13;;;7.93;;
65684;SDS011;52405;50.844;-1.062;2023-03-13T10:37:28;46.28;;;10.55;;
65684;SDS011;52405;50.844;-1.062;2023-03-13T10:40:38;48.42;;;11.43;;
65684;SDS011;52405;50.844;-1.062;2023-03-13T10:42:52;38.55;;;9.23;;
65684;SDS011;52405;50.844;-1.062;2023-03-13T10:45:23;43.03;;;8.80;;
65684;SDS011;52405;50.844;-1.062;2023-03-13T10:47:54;39.75;;;9.52;;
65684;SDS011;52405;50.844;-1.062;2023-03-13T10:50:24;41.58;;;9.18;;
65684;SDS011;52405;50.844;-1.062;2023-03-13T10:52:54;44.08;;;9.98;;
65684;SDS011;52405;50.844;-1.062;2023-03-13T10:55:22;46.90;;;11.52;;
65684;SDS011;52405;50.844;-1.062;2023-03-13T11:03:04;40.20;;;10.23;;
65684;SDS011;52405;50.844;-1.062;2023-03-13T11:05:39;46.55;;;8.88;;
65684;SDS011;52405;50.844;-1.062;2023-03-13T11:10:50;45.30;;;10.63;;
65684;SDS011;52405;50.844;-1.062;2023-03-13T11:13:25;40.97;;;8.98;;
65684;SDS011;52405;50.844;-1.062;2023-03-13T11:16:00;41.95;;;10.15;;
65684;SDS011;52405;50.844;-1.062;2023-03-13T11:32:53;38.67;;;9.18;;
65684;SDS011;52405;50.844;-1.062;2023-03-13T11:35:34;41.38;;;9.27;;
65684;SDS011;52405;50.844;-1.062;2023-03-13T11:38:07;58.15;;;12.05;;
65684;SDS011;52405;50.844;-1.062;2023-03-13T12:06:10;48.17;;;11.32;;
65684;SDS011;52405;50.844;-1.062;2023-03-13T12:08:45;32.20;;;8.25;;
65684;SDS011;52405;50.844;-1.062;2023-03-13T12:12:01;36.63;;;8.77;;
65684;SDS011;52405;50.844;-1.062;2023-03-13T12:14:14;44.45;;;9.63;;
65684;SDS011;52405;50.844;-1.062;2023-03-13T12:16:55;34.40;;;8.02;;
65684;SDS011;52405;50.844;-1.062;2023-03-13T12:19:27;42.85;;;7.07;;
65684;SDS011;52405;50.844;-1.062;2023-03-13T12:22:00;41.22;;;10.15;;
65684;SDS011;52405;50.844;-1.062;2023-03-13T12:24:43;40.75;;;8.65;;
65684;SDS011;52405;50.844;-1.062;2023-03-13T12:27:45;47.83;;;9.90;;
65684;SDS011;52405;50.844;-1.062;2023-03-13T12:30:20;41.50;;;9.82;;
65684;SDS011;52405;50.844;-1.062;2023-03-13T12:33:09;31.77;;;8.10;;
65684;SDS011;52405;50.844;-1.062;2023-03-13T12:35:48;40.13;;;10.75;;
65684;SDS011;52405;50.844;-1.062;2023-03-13T12:41:37;37.78;;;10.13;;
65684;SDS011;52405;50.844;-1.062;2023-03-13T12:44:13;39.58;;;10.63;;
65684;SDS011;52405;50.844;-1.062;2023-03-13T12:46:46;51.17;;;9.57;;
65684;SDS011;52405;50.844;-1.062;2023-03-13T13:00:24;39.90;;;9.60;;
65684;SDS011;52405;50.844;-1.062;2023-03-13T13:05:40;36.10;;;9.38;;
65684;SDS011;52405;50.844;-1.062;2023-03-13T13:08:34;38.03;;;10.07;;
65684;SDS011;52405;50.844;-1.062;2023-03-13T13:16:55;40.53;;;9.40;;
65684;SDS011;52405;50.844;-1.062;2023-03-13T13:25:01;38.97;;;10.00;;
65684;SDS011;52405;50.844;-1.062;2023-03-13T13:27:48;48.00;;;10.35;;
65684;SDS011;52405;50.844;-1.062;2023-03-13T13:32:49;39.30;;;9.48;;
65684;SDS011;52405;50.844;-1.062;2023-03-13T13:37:47;40.17;;;8.75;;
65684;SDS011;52405;50.844;-1.062;2023-03-13T13:40:28;44.80;;;8.52;;
65684;SDS011;52405;50.844;-1.062;2023-03-13T13:43:00;45.08;;;10.75;;
65684;SDS011;52405;50.844;-1.062;2023-03-13T13:45:32;39.75;;;8.45;;
65684;SDS011;52405;50.844;-1.062;2023-03-13T13:48:33;34.65;;;8.73;;
65684;SDS011;52405;50.844;-1.062;2023-03-13T13:56:51;35.83;;;8.55;;
65684;SDS011;52405;50.844;-1.062;2023-03-13T13:59:29;38.05;;;10.50;;
65684;SDS011;52405;50.844;-1.062;2023-03-13T14:04:29;41.78;;;10.55;;
65684;SDS011;52405;50.844;-1.062;2023-03-13T14:07:04;36.22;;;7.50;;
65684;SDS011;52405;50.844;-1.062;2023-03-13T14:09:32;40.20;;;9.77;;
65684;SDS011;52405;50.844;-1.062;2023-03-13T14:23:02;38.10;;;8.10;;
65684;SDS011;52405;50.844;-1.062;2023-03-13T14:25:48;35.85;;;8.50;;
65684;SDS011;52405;50.844;-1.062;2023-03-13T14:28:22;52.08;;;10.32;;
65684;SDS011;52405;50.844;-1.062;2023-03-13T14:30:51;40.20;;;10.43;;
65684;SDS011;52405;50.844;-1.062;2023-03-13T14:33:21;28.52;;;7.65;;
65684;SDS011;52405;50.844;-1.062;2023-03-13T14:35:53;49.25;;;10.52;;
65684;SDS011;52405;50.844;-1.062;2023-03-13T14:38:23;39.30;;;9.82;;
65684;SDS011;52405;50.844;-1.062;2023-03-13T14:40:51;37.10;;;8.77;;
65684;SDS011;52405;50.844;-1.062;2023-03-13T14:43:35;32.83;;;7.82;;
65684;SDS011;52405;50.844;-1.062;2023-03-13T14:46:12;41.83;;;7.90;;
65684;SDS011;52405;50.844;-1.062;2023-03-13T14:48:53;32.50;;;8.30;;
65684;SDS011;52405;50.844;-1.062;2023-03-13T14:51:23;28.92;;;7.57;;
65684;SDS011;52405;50.844;-1.062;2023-03-13T14:53:57;39.72;;;9.18;;
65684;SDS011;52405;50.844;-1.062;2023-03-13T14:56:34;33.63;;;6.25;;
65684;SDS011;52405;50.844;-1.062;2023-03-13T14:59:44;29.27;;;7.95;;
65684;SDS011;52405;50.844;-1.062;2023-03-13T15:02:27;37.40;;;8.73;;
65684;SDS011;52405;50.844;-1.062;2023-03-13T15:04:57;30.20;;;6.63;;
65684;SDS011;52405;50.844;-1.062;2023-03-13T15:07:47;28.15;;;7.45;;
65684;SDS011;52405;50.844;-1.062;2023-03-13T15:15:55;32.22;;;6.68;;
65684;SDS011;52405;50.844;-1.062;2023-03-13T15:18:23;31.63;;;9.43;;
65684;SDS011;52405;50.844;-1.062;2023-03-13T15:20:54;34.75;;;7.65;;
65684;SDS011;52405;50.844;-1.062;2023-03-13T15:23:21;41.17;;;8.63;;
65684;SDS011;52405;50.844;-1.062;2023-03-13T15:25:47;38.65;;;8.02;;
65684;SDS011;52405;50.844;-1.062;2023-03-13T15:28:14;29.08;;;8.20;;
65684;SDS011;52405;50.844;-1.062;2023-03-13T15:30:47;32.90;;;7.30;;
65684;SDS011;52405;50.844;-1.062;2023-03-13T15:33:21;36.05;;;9.43;;
65684;SDS011;52405;50.844;-1.062;2023-03-13T15:35:48;31.95;;;8.27;;
65684;SDS011;52405;50.844;-1.062;2023-03-13T15:38:20;33.05;;;7.63;;
65684;SDS011;52405;50.844;-1.062;2023-03-13T15:40:47;41.30;;;8.45;;
65684;SDS011;52405;50.844;-1.062;2023-03-13T15:43:14;30.20;;;7.60;;
65684;SDS011;52405;50.844;-1.062;2023-03-13T15:45:41;34.50;;;8.10;;
65684;SDS011;52405;50.844;-1.062;2023-03-13T15:48:12;23.77;;;6.43;;
65684;SDS011;52405;50.844;-1.062;2023-03-13T15:50:40;32.83;;;6.40;;
65684;SDS011;52405;50.844;-1.062;2023-03-13T15:55:41;34.45;;;8.02;;
65684;SDS011;52405;50.844;-1.062;2023-03-13T15:58:07;25.83;;;8.73;;
65684;SDS011;52405;50.844;-1.062;2023-03-13T16:00:35;35.15;;;8.60;;
65684;SDS011;52405;50.844;-1.062;2023-03-13T16:03:00;40.20;;;7.43;;
65684;SDS011;52405;50.844;-1.062;2023-03-13T16:05:26;40.70;;;8.50;;
65684;SDS011;52405;50.844;-1.062;2023-03-13T16:07:54;26.45;;;7.13;;
65684;SDS011;52405;50.844;-1.062;2023-03-13T16:10:23;53.42;;;9.10;;
65684;SDS011;52405;50.844;-1.062;2023-03-13T16:12:52;43.05;;;11.25;;
65684;SDS011;52405;50.844;-1.062;2023-03-13T16:15:18;35.58;;;10.15;;
65684;SDS011;52405;50.844;-1.062;2023-03-13T16:17:46;33.50;;;9.57;;
65684;SDS011;52405;50.844;-1.062;2023-03-13T16:20:15;36.17;;;10.70;;
65684;SDS011;52405;50.844;-1.062;2023-03-13T16:22:44;33.85;;;9.88;;
65684;SDS011;52405;50.844;-1.062;2023-03-13T16:25:10;33.28;;;9.88;;
65684;SDS011;52405;50.844;-1.062;2023-03-13T16:27:39;41.33;;;9.35;;
65684;SDS011;52405;50.844;-1.062;2023-03-13T16:30:11;37.40;;;8.60;;
65684;SDS011;52405;50.844;-1.062;2023-03-13T16:32:43;38.08;;;8.93;;
65684;SDS011;52405;50.844;-1.062;2023-03-13T16:35:09;30.70;;;6.32;;
65684;SDS011;52405;50.844;-1.062;2023-03-13T16:37:35;38.33;;;7.55;;
65684;SDS011;52405;50.844;-1.062;2023-03-13T16:42:51;38.20;;;10.70;;
65684;SDS011;52405;50.844;-1.062;2023-03-13T16:45:16;29.83;;;7.30;;
65684;SDS011;52405;50.844;-1.062;2023-03-13T16:47:42;22.58;;;6.78;;
65684;SDS011;52405;50.844;-1.062;2023-03-13T16:50:14;33.38;;;7.55;;